Time;durP1;ratioP1;P1;durP2;ratioP2;P2;SDS_P1;SDS_P2;PMS_P1;PMS_P2;Temp;Humidity;BMP_temperature;BMP_pressure;BME280_temperature;BME280_humidity;BME280_pressure;Samples;Min_cycle;Max_cycle;Signal;HPM_P1;HPM_P2
2021/12/26 00:00:09;;;;;;;2.10;0.82;;;;;;;;;;5109775;28;20488;-77
2021/12/26 00:02:36;;;;;;;1.52;0.50;;;;;;;;;;5082449;28;20028;-76
2021/12/26 00:05:02;;;;;;;3.30;0.73;;;;;;;;;;5089848;28;20027;-76
2021/12/26 00:07:28;;;;;;;2.95;0.93;;;;;;;;;;5102607;28;20043;-76
2021/12/26 00:09:54;;;;;;;3.13;0.93;;;;;;;;;;5087078;28;20032;-76
2021/12/26 00:12:20;;;;;;;1.67;0.98;;;;;;;;;;5104536;28;20032;-76
2021/12/26 00:14:46;;;;;;;4.95;0.73;;;;;;;;;;5106472;28;20032;-76
2021/12/26 00:17:13;;;;;;;1.15;0.70;;;;;;;;;;5101137;28;20028;-76
2021/12/26 00:19:39;;;;;;;2.15;1.10;;;;;;;;;;5083530;28;20052;-76
2021/12/26 00:22:05;;;;;;;2.70;0.70;;;;;;;;;;5086176;28;20035;-76
2021/12/26 00:24:31;;;;;;;2.72;0.82;;;;;;;;;;5107691;28;20024;-77
2021/12/26 00:26:57;;;;;;;0.80;0.70;;;;;;;;;;5090354;27;20044;-77
2021/12/26 00:29:24;;;;;;;2.78;0.60;;;;;;;;;;5105484;28;20039;-77
2021/12/26 00:31:50;;;;;;;1.33;0.77;;;;;;;;;;5085347;28;20047;-77
2021/12/26 00:34:16;;;;;;;5.57;1.05;;;;;;;;;;5103869;28;20028;-76
2021/12/26 00:36:42;;;;;;;3.13;0.68;;;;;;;;;;5099795;28;20027;-77
2021/12/26 00:39:09;;;;;;;2.65;0.85;;;;;;;;;;5104068;28;20030;-78
2021/12/26 00:41:39;;;;;;;5.38;1.60;;;;;;;;;;5109669;28;20090;-77
2021/12/26 00:44:05;;;;;;;1.60;0.93;;;;;;;;;;5110039;27;20616;-76
2021/12/26 00:46:31;;;;;;;2.92;0.88;;;;;;;;;;5112096;27;20030;-76
2021/12/26 00:48:58;;;;;;;2.80;1.33;;;;;;;;;;5108749;28;20032;-76
2021/12/26 00:51:24;;;;;;;5.95;1.00;;;;;;;;;;5105560;28;20040;-75
2021/12/26 00:53:50;;;;;;;2.75;0.57;;;;;;;;;;5109850;28;20024;-76
2021/12/26 00:56:17;;;;;;;1.33;0.70;;;;;;;;;;5107123;28;20027;-77
2021/12/26 00:58:44;;;;;;;2.58;0.60;;;;;;;;;;5105820;28;20488;-76
2021/12/26 01:01:10;;;;;;;4.30;0.82;;;;;;;;;;5108123;27;20031;-77
2021/12/26 01:03:36;;;;;;;1.80;0.50;;;;;;;;;;5109255;28;20469;-78
2021/12/26 01:06:03;;;;;;;1.02;0.60;;;;;;;;;;5102613;28;20064;-77
2021/12/26 01:08:31;;;;;;;2.13;0.80;;;;;;;;;;5103447;28;20552;-75
2021/12/26 01:11:04;;;;;;;1.60;0.60;;;;;;;;;;5090012;28;20110;-76
2021/12/26 01:13:37;;;;;;;2.40;0.85;;;;;;;;;;5110484;28;20071;-76
2021/12/26 01:16:03;;;;;;;;;;;;;;;;;;5102230;28;20019;-76
2021/12/26 01:18:31;;;;;;;0.85;0.57;;;;;;;;;;5106168;27;20259;-76
2021/12/26 01:21:17;;;;;;;1.23;0.68;;;;;;;;;;5104489;28;20028;-76
2021/12/26 01:23:44;;;;;;;2.25;0.93;;;;;;;;;;5098966;28;20051;-76
2021/12/26 01:26:10;;;;;;;2.55;0.70;;;;;;;;;;5101123;28;20043;-76
2021/12/26 01:28:36;;;;;;;1.33;0.63;;;;;;;;;;5091098;28;20126;-76
2021/12/26 01:31:03;;;;;;;2.75;0.70;;;;;;;;;;5085127;28;20062;-76
2021/12/26 01:33:29;;;;;;;3.00;0.88;;;;;;;;;;5068795;28;20085;-76
2021/12/26 01:35:55;;;;;;;2.20;0.90;;;;;;;;;;5081763;28;20403;-76
2021/12/26 01:38:22;;;;;;;2.45;0.82;;;;;;;;;;5087218;28;20035;-76
2021/12/26 01:40:56;;;;;;;3.40;0.60;;;;;;;;;;5089131;28;20072;-76
2021/12/26 01:43:24;;;;;;;3.15;0.70;;;;;;;;;;5086027;28;20035;-79
2021/12/26 01:45:50;;;;;;;3.70;1.00;;;;;;;;;;5088566;28;20036;-78
2021/12/26 01:48:17;;;;;;;2.08;0.68;;;;;;;;;;5081626;28;20035;-78
2021/12/26 01:50:44;;;;;;;1.38;0.75;;;;;;;;;;5085558;28;20482;-78
2021/12/26 01:53:10;;;;;;;2.72;1.25;;;;;;;;;;5083845;28;20056;-78
2021/12/26 01:58:07;;;;;;;4.78;0.88;;;;;;;;;;5085070;28;20032;-78
2021/12/26 02:00:33;;;;;;;0.93;0.50;;;;;;;;;;5078075;28;20032;-78
2021/12/26 02:03:00;;;;;;;5.38;1.17;;;;;;;;;;5085871;28;20025;-78
2021/12/26 02:05:27;;;;;;;1.70;0.70;;;;;;;;;;5088108;28;20097;-77
2021/12/26 02:07:53;;;;;;;0.60;0.40;;;;;;;;;;5078097;28;20060;-78
2021/12/26 02:10:19;;;;;;;1.00;0.70;;;;;;;;;;5081021;28;20469;-78
2021/12/26 02:12:45;;;;;;;2.95;0.75;;;;;;;;;;5069652;28;20032;-78
2021/12/26 02:15:11;;;;;;;1.55;0.60;;;;;;;;;;5086582;28;20020;-77
2021/12/26 02:17:38;;;;;;;5.20;0.68;;;;;;;;;;5054261;28;20073;-77
2021/12/26 02:20:29;;;;;;;1.80;0.80;;;;;;;;;;5084030;28;20032;-77
2021/12/26 02:23:02;;;;;;;4.07;0.57;;;;;;;;;;5084756;28;20028;-77
2021/12/26 02:27:31;;;;;;;2.42;0.77;;;;;;;;;;5081486;28;20549;-77
2021/12/26 02:28:17;;;;;;;3.03;0.60;;;;;;;;;;5099656;28;20513;-77
2021/12/26 02:30:43;;;;;;;3.92;0.77;;;;;;;;;;5104079;28;20031;-77
2021/12/26 02:33:11;;;;;;;2.95;0.60;;;;;;;;;;5107378;28;20376;-77
2021/12/26 02:35:37;;;;;;;2.90;0.70;;;;;;;;;;5101292;28;20016;-76
2021/12/26 02:38:04;;;;;;;2.67;0.63;;;;;;;;;;5104135;28;20032;-77
2021/12/26 02:40:30;;;;;;;1.15;0.75;;;;;;;;;;5101687;28;20031;-76
2021/12/26 02:42:56;;;;;;;2.75;0.90;;;;;;;;;;5105181;27;20035;-76
2021/12/26 02:45:22;;;;;;;0.80;0.60;;;;;;;;;;5106557;28;20047;-76
2021/12/26 02:47:49;;;;;;;2.17;0.70;;;;;;;;;;5104701;28;20039;-75
2021/12/26 02:50:20;;;;;;;0.95;0.40;;;;;;;;;;5107540;28;20061;-76
2021/12/26 02:52:47;;;;;;;0.70;0.40;;;;;;;;;;5085707;28;20024;-76
2021/12/26 02:55:14;;;;;;;3.67;0.93;;;;;;;;;;5092906;28;20136;-76
2021/12/26 02:57:40;;;;;;;1.58;0.73;;;;;;;;;;5102098;28;20160;-76
2021/12/26 03:00:11;;;;;;;1.73;0.45;;;;;;;;;;5085930;28;20059;-75
2021/12/26 03:02:41;;;;;;;4.05;1.02;;;;;;;;;;5102060;28;20062;-76
2021/12/26 03:05:07;;;;;;;1.58;0.80;;;;;;;;;;5096523;28;20034;-76
2021/12/26 03:07:33;;;;;;;3.00;0.47;;;;;;;;;;5087368;28;20105;-76
2021/12/26 03:10:00;;;;;;;4.18;1.27;;;;;;;;;;5091135;28;20051;-76
2021/12/26 03:12:27;;;;;;;2.58;0.70;;;;;;;;;;5107206;28;20030;-76
2021/12/26 03:14:53;;;;;;;1.38;0.70;;;;;;;;;;5104247;28;20034;-76
2021/12/26 03:17:21;;;;;;;2.10;0.70;;;;;;;;;;5078817;27;20432;-77
2021/12/26 03:19:47;;;;;;;2.05;0.90;;;;;;;;;;5111583;27;20389;-77
2021/12/26 03:22:15;;;;;;;3.13;0.90;;;;;;;;;;5109879;28;20031;-77
2021/12/26 03:24:42;;;;;;;2.92;0.65;;;;;;;;;;5103851;28;20035;-77
2021/12/26 03:27:09;;;;;;;2.22;1.05;;;;;;;;;;5109031;28;20036;-76
2021/12/26 03:29:35;;;;;;;1.58;0.50;;;;;;;;;;5084530;28;20143;-77
2021/12/26 03:32:02;;;;;;;1.20;0.50;;;;;;;;;;5107604;28;20026;-76
2021/12/26 03:34:28;;;;;;;1.55;0.60;;;;;;;;;;5099527;27;20028;-77
2021/12/26 03:36:56;;;;;;;2.45;0.88;;;;;;;;;;5086320;28;20067;-77
2021/12/26 03:39:22;;;;;;;4.80;1.13;;;;;;;;;;5100531;28;20042;-77
2021/12/26 03:41:48;;;;;;;1.80;0.80;;;;;;;;;;5096182;28;20036;-77
2021/12/26 03:44:14;;;;;;;1.55;0.85;;;;;;;;;;5104519;28;20058;-77
2021/12/26 03:46:40;;;;;;;3.00;0.70;;;;;;;;;;5108697;28;20043;-77
2021/12/26 03:49:06;;;;;;;1.42;0.30;;;;;;;;;;5095881;28;20051;-77
2021/12/26 03:51:34;;;;;;;1.52;0.60;;;;;;;;;;5107948;27;20027;-77
2021/12/26 03:54:01;;;;;;;1.55;0.75;;;;;;;;;;5097273;28;20032;-77
2021/12/26 03:56:28;;;;;;;1.65;0.90;;;;;;;;;;5101315;28;20052;-77
2021/12/26 03:58:54;;;;;;;2.17;0.60;;;;;;;;;;5110892;28;20038;-77
2021/12/26 04:01:20;;;;;;;2.65;0.80;;;;;;;;;;5083923;28;20294;-77
2021/12/26 04:03:46;;;;;;;2.05;0.82;;;;;;;;;;5084864;28;20024;-77
2021/12/26 04:06:12;;;;;;;4.95;0.90;;;;;;;;;;5102222;28;20028;-76
2021/12/26 04:08:38;;;;;;;2.60;0.75;;;;;;;;;;5089059;28;20039;-77
2021/12/26 04:11:04;;;;;;;1.40;0.80;;;;;;;;;;5088060;28;20023;-77
2021/12/26 04:13:31;;;;;;;1.30;0.55;;;;;;;;;;5104445;28;20028;-77
2021/12/26 04:15:57;;;;;;;1.95;0.80;;;;;;;;;;5107212;28;20032;-77
2021/12/26 04:18:23;;;;;;;4.40;0.68;;;;;;;;;;5088103;28;20039;-77
2021/12/26 04:20:49;;;;;;;1.20;0.35;;;;;;;;;;5095206;28;20032;-77
2021/12/26 04:23:15;;;;;;;2.15;1.00;;;;;;;;;;5099240;28;20023;-77
2021/12/26 04:25:42;;;;;;;2.97;0.75;;;;;;;;;;5103226;28;20118;-77
2021/12/26 04:28:08;;;;;;;1.88;0.75;;;;;;;;;;5102710;28;20127;-78
2021/12/26 04:30:34;;;;;;;3.13;1.33;;;;;;;;;;5107327;28;20059;-78
2021/12/26 04:33:01;;;;;;;3.13;0.82;;;;;;;;;;5103816;28;20370;-77
2021/12/26 04:35:27;;;;;;;1.13;0.50;;;;;;;;;;5096472;28;20032;-77
2021/12/26 04:37:54;;;;;;;3.72;1.13;;;;;;;;;;5107922;28;20073;-77
2021/12/26 04:40:21;;;;;;;2.00;0.65;;;;;;;;;;5108075;28;20028;-77
2021/12/26 04:42:48;;;;;;;1.45;0.47;;;;;;;;;;5103412;28;20024;-76
2021/12/26 04:45:15;;;;;;;1.00;0.60;;;;;;;;;;5101484;28;20434;-76
2021/12/26 04:47:42;;;;;;;1.92;0.68;;;;;;;;;;5100570;28;20055;-77
2021/12/26 04:50:12;;;;;;;1.98;1.05;;;;;;;;;;5098166;28;20502;-77
2021/12/26 04:52:43;;;;;;;1.92;0.80;;;;;;;;;;5102536;28;20024;-77
2021/12/26 04:55:10;;;;;;;1.40;0.70;;;;;;;;;;5105114;28;20031;-77
2021/12/26 04:57:36;;;;;;;0.73;0.55;;;;;;;;;;5073000;28;20113;-77
2021/12/26 05:00:04;;;;;;;1.30;0.55;;;;;;;;;;5104026;28;20455;-80
2021/12/26 05:02:33;;;;;;;0.52;0.52;;;;;;;;;;5085433;28;20043;-78
2021/12/26 05:04:59;;;;;;;1.17;0.70;;;;;;;;;;5106825;28;20028;-80
2021/12/26 05:07:25;;;;;;;2.33;0.70;;;;;;;;;;5103687;28;20043;-79
2021/12/26 05:09:51;;;;;;;1.25;0.77;;;;;;;;;;5100266;28;20043;-79
2021/12/26 05:12:17;;;;;;;108.95;42.75;;;;;;;;;;5101145;28;20023;-79
2021/12/26 05:14:43;;;;;;;1.88;1.10;;;;;;;;;;5104611;28;20118;-78
2021/12/26 05:17:09;;;;;;;7.60;3.35;;;;;;;;;;5108822;27;20020;-80
2021/12/26 05:19:35;;;;;;;3.97;1.35;;;;;;;;;;5104586;28;20438;-79
2021/12/26 05:22:01;;;;;;;2.67;1.00;;;;;;;;;;5101777;28;20058;-79
2021/12/26 05:24:27;;;;;;;2.70;0.80;;;;;;;;;;5086306;28;20039;-79
2021/12/26 05:26:53;;;;;;;3.25;0.82;;;;;;;;;;5109376;28;20405;-79
2021/12/26 05:29:19;;;;;;;1.15;1.02;;;;;;;;;;5087207;28;20032;-79
2021/12/26 05:31:45;;;;;;;2.58;0.85;;;;;;;;;;5099217;28;20024;-79
2021/12/26 05:34:11;;;;;;;2.35;0.60;;;;;;;;;;5072251;28;20028;-79
2021/12/26 05:36:37;;;;;;;1.83;0.60;;;;;;;;;;5079055;28;20036;-79
2021/12/26 05:39:04;;;;;;;4.82;1.10;;;;;;;;;;5078752;28;20050;-79
2021/12/26 05:41:32;;;;;;;1.48;0.57;;;;;;;;;;5082950;28;20039;-80
2021/12/26 05:43:58;;;;;;;6.13;0.95;;;;;;;;;;5088522;28;20036;-79
2021/12/26 05:46:24;;;;;;;3.33;0.98;;;;;;;;;;5062265;28;20496;-79
2021/12/26 05:48:51;;;;;;;2.60;0.93;;;;;;;;;;5087298;28;20039;-79
2021/12/26 05:51:17;;;;;;;2.38;0.70;;;;;;;;;;5085598;28;20111;-79
2021/12/26 05:53:43;;;;;;;4.55;1.27;;;;;;;;;;5089117;28;20119;-79
2021/12/26 05:56:09;;;;;;;1.80;0.73;;;;;;;;;;5082601;28;20021;-79
2021/12/26 05:58:36;;;;;;;2.58;1.13;;;;;;;;;;5067998;28;20036;-79
2021/12/26 06:01:02;;;;;;;2.72;1.20;;;;;;;;;;5084810;28;20071;-79
2021/12/26 06:03:28;;;;;;;1.80;0.88;;;;;;;;;;5086373;28;20035;-78
2021/12/26 06:05:54;;;;;;;1.90;0.68;;;;;;;;;;5065375;28;20036;-79
2021/12/26 06:08:20;;;;;;;2.63;0.90;;;;;;;;;;5081530;28;20047;-80
2021/12/26 06:10:47;;;;;;;1.80;0.90;;;;;;;;;;5066059;28;20028;-79
2021/12/26 06:13:14;;;;;;;2.05;0.98;;;;;;;;;;5065303;28;20043;-79
2021/12/26 06:15:40;;;;;;;3.17;0.82;;;;;;;;;;5083707;28;20032;-79
2021/12/26 06:18:06;;;;;;;2.25;0.80;;;;;;;;;;5085005;28;20106;-77
2021/12/26 06:20:32;;;;;;;1.10;0.70;;;;;;;;;;5066769;28;20060;-79
2021/12/26 06:22:58;;;;;;;5.85;1.10;;;;;;;;;;5082316;28;20028;-79
2021/12/26 06:25:24;;;;;;;8.65;0.93;;;;;;;;;;5091503;28;20046;-78
2021/12/26 06:27:50;;;;;;;2.42;0.80;;;;;;;;;;5087748;28;20063;-78
2021/12/26 06:30:16;;;;;;;2.03;1.10;;;;;;;;;;5093878;28;20032;-79
2021/12/26 06:32:43;;;;;;;2.50;1.08;;;;;;;;;;5104462;28;20036;-79
2021/12/26 06:35:09;;;;;;;2.72;1.15;;;;;;;;;;5102238;28;20447;-80
2021/12/26 06:37:35;;;;;;;1.13;0.80;;;;;;;;;;5107559;28;20020;-80
2021/12/26 06:40:02;;;;;;;2.13;0.82;;;;;;;;;;5108053;28;20032;-80
2021/12/26 06:42:30;;;;;;;3.08;1.02;;;;;;;;;;5100704;27;20036;-80
2021/12/26 06:44:56;;;;;;;1.88;1.00;;;;;;;;;;5109805;28;20044;-79
2021/12/26 06:47:23;;;;;;;3.40;1.00;;;;;;;;;;5100881;28;20089;-79
2021/12/26 06:49:49;;;;;;;2.45;1.50;;;;;;;;;;5107045;28;20035;-79
2021/12/26 06:52:15;;;;;;;4.32;1.63;;;;;;;;;;5109216;28;20023;-78
2021/12/26 06:54:41;;;;;;;9.32;2.70;;;;;;;;;;5102892;28;20036;-78
2021/12/26 06:57:08;;;;;;;7.95;2.38;;;;;;;;;;5093626;28;20040;-79
2021/12/26 06:59:34;;;;;;;3.55;1.20;;;;;;;;;;5105188;27;20421;-79
2021/12/26 07:02:00;;;;;;;1.98;1.23;;;;;;;;;;5094677;28;20043;-74
2021/12/26 07:04:26;;;;;;;2.47;1.17;;;;;;;;;;5098915;28;20371;-75
2021/12/26 07:06:52;;;;;;;2.15;1.33;;;;;;;;;;5100565;28;20031;-75
2021/12/26 07:09:18;;;;;;;4.22;1.42;;;;;;;;;;5083949;28;20390;-76
2021/12/26 07:11:44;;;;;;;3.33;1.00;;;;;;;;;;5104072;28;20028;-75
2021/12/26 07:14:10;;;;;;;1.35;0.85;;;;;;;;;;5099033;28;20041;-77
2021/12/26 07:16:36;;;;;;;3.28;1.40;;;;;;;;;;5102027;27;20024;-75
2021/12/26 07:19:03;;;;;;;6.32;1.90;;;;;;;;;;5108454;28;20123;-76
2021/12/26 07:21:29;;;;;;;1.60;1.10;;;;;;;;;;5101837;28;20047;-76
2021/12/26 07:23:55;;;;;;;3.80;1.35;;;;;;;;;;5105045;28;20119;-76
2021/12/26 07:26:23;;;;;;;2.38;1.45;;;;;;;;;;5103144;28;20039;-75
2021/12/26 07:28:49;;;;;;;4.03;1.70;;;;;;;;;;5107511;28;20050;-75
2021/12/26 07:31:16;;;;;;;2.35;1.20;;;;;;;;;;5102372;28;20027;-75
2021/12/26 07:33:42;;;;;;;5.82;2.70;;;;;;;;;;5110716;28;20619;-75
2021/12/26 07:36:08;;;;;;;3.78;1.30;;;;;;;;;;5105615;28;20097;-75
2021/12/26 07:38:34;;;;;;;4.65;1.63;;;;;;;;;;5108562;28;20047;-75
2021/12/26 07:41:00;;;;;;;2.90;1.15;;;;;;;;;;5104638;28;20031;-76
2021/12/26 07:43:26;;;;;;;2.53;1.23;;;;;;;;;;5089270;28;20028;-75
2021/12/26 07:45:52;;;;;;;5.70;1.63;;;;;;;;;;5099103;28;20115;-76
2021/12/26 07:48:18;;;;;;;2.38;1.20;;;;;;;;;;5108797;28;20081;-76
2021/12/26 07:50:44;;;;;;;3.88;1.52;;;;;;;;;;5104289;28;20034;-76
2021/12/26 07:53:12;;;;;;;4.07;1.50;;;;;;;;;;5104523;28;20123;-75
2021/12/26 07:55:39;;;;;;;3.03;1.23;;;;;;;;;;5097429;28;20028;-75
2021/12/26 07:58:05;;;;;;;3.08;1.55;;;;;;;;;;5097406;28;20367;-75
2021/12/26 08:00:31;;;;;;;6.10;1.73;;;;;;;;;;5097850;28;20027;-75
2021/12/26 08:02:58;;;;;;;5.95;2.08;;;;;;;;;;5106218;28;20533;-74
2021/12/26 08:05:24;;;;;;;2.58;1.40;;;;;;;;;;5106362;28;20085;-75
2021/12/26 08:07:50;;;;;;;4.15;2.25;;;;;;;;;;5089397;28;20076;-75
2021/12/26 08:10:17;;;;;;;3.70;2.00;;;;;;;;;;5091162;28;20478;-75
2021/12/26 08:12:43;;;;;;;4.22;2.30;;;;;;;;;;5097547;28;20031;-75
2021/12/26 08:15:09;;;;;;;3.10;1.77;;;;;;;;;;5105155;28;20106;-75
2021/12/26 08:17:35;;;;;;;4.13;1.45;;;;;;;;;;5103692;28;20023;-75
2021/12/26 08:20:03;;;;;;;4.05;1.70;;;;;;;;;;5086216;28;20441;-76
2021/12/26 08:22:29;;;;;;;5.80;1.50;;;;;;;;;;5102713;28;20107;-76
2021/12/26 08:24:55;;;;;;;4.13;1.58;;;;;;;;;;5102273;28;20028;-75
2021/12/26 08:27:22;;;;;;;2.45;1.33;;;;;;;;;;5102776;28;20430;-75
2021/12/26 08:29:48;;;;;;;7.15;1.80;;;;;;;;;;5107240;28;20035;-75
2021/12/26 08:32:16;;;;;;;3.97;1.67;;;;;;;;;;5104337;28;20020;-75
2021/12/26 08:34:43;;;;;;;4.63;1.83;;;;;;;;;;5081031;28;20061;-75
2021/12/26 08:37:10;;;;;;;3.70;1.63;;;;;;;;;;5108966;28;20034;-75
2021/12/26 08:39:38;;;;;;;7.18;3.80;;;;;;;;;;5107319;28;20040;-74
2021/12/26 08:42:05;;;;;;;5.13;3.03;;;;;;;;;;5091932;28;20122;-75
2021/12/26 08:44:32;;;;;;;5.57;2.67;;;;;;;;;;5104755;28;20031;-74
2021/12/26 08:46:58;;;;;;;7.78;3.60;;;;;;;;;;5104673;28;20055;-74
2021/12/26 08:49:24;;;;;;;4.60;2.40;;;;;;;;;;5104968;28;20038;-74
2021/12/26 08:51:51;;;;;;;3.72;1.65;;;;;;;;;;5109882;28;20473;-74
2021/12/26 08:54:17;;;;;;;5.95;1.85;;;;;;;;;;5106286;28;20538;-74
2021/12/26 08:56:44;;;;;;;3.95;1.83;;;;;;;;;;5097979;28;20398;-74
2021/12/26 08:59:10;;;;;;;4.03;1.80;;;;;;;;;;5105698;27;20050;-74
2021/12/26 09:01:36;;;;;;;7.50;1.75;;;;;;;;;;5113405;28;20032;-74
2021/12/26 09:04:03;;;;;;;4.57;1.50;;;;;;;;;;5107325;28;20362;-72
2021/12/26 09:06:29;;;;;;;3.67;1.63;;;;;;;;;;5097303;28;20042;-74
2021/12/26 09:08:56;;;;;;;2.40;1.48;;;;;;;;;;5104502;28;20445;-74
2021/12/26 09:11:22;;;;;;;4.93;1.90;;;;;;;;;;5100634;28;20080;-74
2021/12/26 09:13:48;;;;;;;7.47;2.15;;;;;;;;;;5105271;27;20047;-77
2021/12/26 09:16:14;;;;;;;3.78;2.00;;;;;;;;;;5110353;28;20870;-78
2021/12/26 09:18:41;;;;;;;5.82;2.08;;;;;;;;;;5104508;28;20120;-78
2021/12/26 09:21:07;;;;;;;5.68;1.52;;;;;;;;;;5100706;28;20052;-77
2021/12/26 09:23:33;;;;;;;5.63;2.10;;;;;;;;;;5105799;28;20024;-76
2021/12/26 09:25:59;;;;;;;4.32;1.70;;;;;;;;;;5105526;28;20493;-78
2021/12/26 09:28:26;;;;;;;3.03;1.42;;;;;;;;;;5099176;28;20035;-76
2021/12/26 09:30:52;;;;;;;4.25;1.55;;;;;;;;;;5102535;27;20123;-77
2021/12/26 09:33:19;;;;;;;4.43;1.85;;;;;;;;;;5109977;27;20092;-78
2021/12/26 09:35:46;;;;;;;25.92;9.20;;;;;;;;;;5105903;28;20023;-77
2021/12/26 09:38:13;;;;;;;5.07;2.30;;;;;;;;;;5105381;28;20050;-79
2021/12/26 09:40:39;;;;;;;3.28;2.20;;;;;;;;;;5083010;28;20091;-78
2021/12/26 09:43:05;;;;;;;3.30;1.58;;;;;;;;;;5091804;28;20433;-77
2021/12/26 09:45:31;;;;;;;4.15;2.80;;;;;;;;;;5088583;28;20088;-78
2021/12/26 09:47:57;;;;;;;4.55;2.63;;;;;;;;;;5111577;27;20028;-76
2021/12/26 09:50:24;;;;;;;2.70;2.08;;;;;;;;;;5088432;28;20036;-74
2021/12/26 09:52:52;;;;;;;4.38;1.92;;;;;;;;;;5104890;28;20053;-75
2021/12/26 09:55:18;;;;;;;3.15;1.92;;;;;;;;;;5108008;28;20032;-74
2021/12/26 09:57:45;;;;;;;3.47;1.55;;;;;;;;;;5102556;27;20080;-74
2021/12/26 10:00:33;;;;;;;4.22;2.45;;;;;;;;;;5107394;27;20042;-73
2021/12/26 10:03:14;;;;;;;4.97;1.90;;;;;;;;;;5099523;28;20054;-74
2021/12/26 10:05:58;;;;;;;6.50;1.65;;;;;;;;;;5095164;28;20031;-75
2021/12/26 10:08:25;;;;;;;4.82;1.60;;;;;;;;;;5103822;27;20389;-74
2021/12/26 10:11:26;;;;;;;2.25;1.50;;;;;;;;;;5108761;28;20033;-75
2021/12/26 10:14:06;;;;;;;2.95;1.40;;;;;;;;;;5048067;28;20110;-74
2021/12/26 10:16:33;;;;;;;5.50;1.75;;;;;;;;;;5093822;28;20032;-74
2021/12/26 10:18:59;;;;;;;3.40;1.90;;;;;;;;;;5109196;28;20070;-75
2021/12/26 10:21:25;;;;;;;2.17;1.30;;;;;;;;;;5103387;27;20102;-74
2021/12/26 10:23:52;;;;;;;2.67;1.63;;;;;;;;;;5099458;27;20032;-74
2021/12/26 10:26:22;;;;;;;5.22;2.00;;;;;;;;;;5101519;28;20675;-75
2021/12/26 10:29:07;;;;;;;5.07;1.85;;;;;;;;;;5091880;28;20039;-75
2021/12/26 10:31:33;;;;;;;5.22;1.80;;;;;;;;;;5100624;28;20558;-75
2021/12/26 10:33:59;;;;;;;6.28;2.25;;;;;;;;;;5094571;28;20032;-75
2021/12/26 10:36:27;;;;;;;5.40;2.75;;;;;;;;;;5104684;28;20024;-74
2021/12/26 10:39:12;;;;;;;4.10;2.15;;;;;;;;;;5100687;28;20032;-75
2021/12/26 10:41:52;;;;;;;5.90;2.90;;;;;;;;;;5105318;28;20028;-75
2021/12/26 10:44:23;;;;;;;5.13;2.47;;;;;;;;;;5099157;28;20161;-75
2021/12/26 10:46:50;;;;;;;6.63;2.75;;;;;;;;;;5102708;28;20039;-74
2021/12/26 10:49:42;;;;;;;6.38;2.63;;;;;;;;;;5102631;28;20031;-75
2021/12/26 10:52:13;;;;;;;4.85;2.90;;;;;;;;;;5099188;28;20052;-74
2021/12/26 10:54:43;;;;;;;4.20;2.33;;;;;;;;;;5095957;28;20023;-74
2021/12/26 10:57:14;;;;;;;5.93;2.53;;;;;;;;;;5110238;28;20077;-74
2021/12/26 10:59:41;;;;;;;3.03;2.00;;;;;;;;;;5102848;28;20039;-74
2021/12/26 11:02:08;;;;;;;4.38;2.30;;;;;;;;;;5104831;28;20023;-74
2021/12/26 11:04:35;;;;;;;4.68;2.55;;;;;;;;;;5100693;28;20024;-74
2021/12/26 11:07:08;;;;;;;7.85;2.80;;;;;;;;;;5105130;28;20098;-75
2021/12/26 11:09:35;;;;;;;4.25;3.03;;;;;;;;;;5107514;28;20104;-75
2021/12/26 11:12:08;;;;;;;3.35;2.30;;;;;;;;;;5104248;28;20092;-74
2021/12/26 11:14:54;;;;;;;3.55;2.22;;;;;;;;;;5108658;28;20485;-74
2021/12/26 11:17:49;;;;;;;2.92;1.83;;;;;;;;;;5090288;28;21097;-74
2021/12/26 11:20:26;;;;;;;4.05;2.17;;;;;;;;;;5087338;28;20035;-74
2021/12/26 11:22:53;;;;;;;3.85;2.58;;;;;;;;;;5105167;28;20031;-74
2021/12/26 11:25:22;;;;;;;5.10;2.28;;;;;;;;;;5111191;28;20119;-74
2021/12/26 11:27:48;;;;;;;3.58;2.30;;;;;;;;;;5110153;28;20116;-74
2021/12/26 11:30:15;;;;;;;6.28;2.63;;;;;;;;;;5106395;28;20404;-74
2021/12/26 11:32:42;;;;;;;3.60;2.08;;;;;;;;;;5105720;28;20040;-74
2021/12/26 11:35:09;;;;;;;6.07;2.70;;;;;;;;;;5105051;28;20044;-74
2021/12/26 11:37:36;;;;;;;5.07;2.40;;;;;;;;;;5106104;28;20027;-74
2021/12/26 11:40:04;;;;;;;4.22;2.33;;;;;;;;;;5106317;28;20088;-73
2021/12/26 11:42:48;;;;;;;4.53;2.80;;;;;;;;;;5098540;28;20499;-73
2021/12/26 11:45:24;;;;;;;3.28;1.95;;;;;;;;;;5104755;28;20492;-73
2021/12/26 11:47:59;;;;;;;3.67;2.10;;;;;;;;;;5109730;28;20035;-73
2021/12/26 11:50:28;;;;;;;4.97;2.40;;;;;;;;;;5103847;28;20027;-72
2021/12/26 11:53:00;;;;;;;3.92;2.38;;;;;;;;;;5105848;28;20028;-73
2021/12/26 11:55:45;;;;;;;5.40;2.30;;;;;;;;;;5106613;28;20019;-73
2021/12/26 11:58:23;;;;;;;7.28;3.42;;;;;;;;;;5105053;28;20023;-74
2021/12/26 12:00:53;;;;;;;7.60;3.30;;;;;;;;;;5098243;28;20036;-74
2021/12/26 12:03:24;;;;;;;3.97;2.35;;;;;;;;;;5101755;28;20020;-73
2021/12/26 12:05:51;;;;;;;5.68;3.13;;;;;;;;;;5107875;28;20053;-73
2021/12/26 12:08:25;;;;;;;4.40;2.45;;;;;;;;;;5101566;28;20028;-74
2021/12/26 12:10:55;;;;;;;4.60;2.20;;;;;;;;;;5107037;28;20028;-73
2021/12/26 12:13:23;;;;;;;7.63;2.85;;;;;;;;;;5102126;28;20032;-73
2021/12/26 12:15:54;;;;;;;4.50;2.42;;;;;;;;;;5107631;28;20020;-73
2021/12/26 12:18:28;;;;;;;5.00;2.33;;;;;;;;;;5098829;28;20020;-73
2021/12/26 12:21:14;;;;;;;7.68;4.05;;;;;;;;;;5105712;28;20485;-75
2021/12/26 12:23:58;;;;;;;39.47;19.00;;;;;;;;;;5098969;28;20036;-74
2021/12/26 12:26:36;;;;;;;5.72;2.55;;;;;;;;;;5105272;28;20509;-72
2021/12/26 12:29:03;;;;;;;6.43;2.80;;;;;;;;;;5108577;28;20482;-73
2021/12/26 12:31:29;;;;;;;7.95;3.15;;;;;;;;;;5101741;28;20028;-73
2021/12/26 12:34:02;;;;;;;6.70;2.50;;;;;;;;;;5102324;28;20043;-72
2021/12/26 12:36:30;;;;;;;3.30;2.30;;;;;;;;;;5109556;28;20019;-72
2021/12/26 12:39:08;;;;;;;5.25;3.00;;;;;;;;;;5109552;28;20035;-72
2021/12/26 12:41:38;;;;;;;6.82;3.00;;;;;;;;;;5097057;28;20020;-72
2021/12/26 12:44:06;;;;;;;7.93;2.45;;;;;;;;;;5105318;28;20020;-73
2021/12/26 12:46:52;;;;;;;5.45;3.15;;;;;;;;;;5098980;28;20122;-73
2021/12/26 12:49:20;;;;;;;5.97;3.30;;;;;;;;;;5107094;28;20031;-72
2021/12/26 12:51:48;;;;;;;18.63;8.32;;;;;;;;;;5112720;28;20043;-72
2021/12/26 12:54:30;;;;;;;5.55;2.92;;;;;;;;;;5107840;28;20028;-73
2021/12/26 12:56:57;;;;;;;3.67;2.42;;;;;;;;;;5109710;27;20023;-74
2021/12/26 12:59:27;;;;;;;3.78;2.40;;;;;;;;;;5110356;28;20062;-73
2021/12/26 13:01:54;;;;;;;7.72;3.05;;;;;;;;;;5105482;28;20028;-73
2021/12/26 13:04:22;;;;;;;5.32;3.00;;;;;;;;;;5104635;28;20028;-74
2021/12/26 13:06:56;;;;;;;10.63;2.63;;;;;;;;;;5103452;28;20055;-73
2021/12/26 13:09:22;;;;;;;9.23;3.83;;;;;;;;;;5114247;28;20156;-73
2021/12/26 13:11:49;;;;;;;6.95;2.72;;;;;;;;;;5104075;28;20028;-74
2021/12/26 13:14:34;;;;;;;7.82;3.45;;;;;;;;;;5106670;28;20088;-73
2021/12/26 13:17:00;;;;;;;6.57;2.90;;;;;;;;;;5105047;28;20020;-73
2021/12/26 13:19:30;;;;;;;6.15;2.83;;;;;;;;;;5102409;28;20105;-73
2021/12/26 13:21:57;;;;;;;8.02;2.70;;;;;;;;;;5107706;28;20043;-74
2021/12/26 13:24:30;;;;;;;12.38;5.38;;;;;;;;;;5103077;28;20504;-74
2021/12/26 13:26:56;;;;;;;10.82;5.22;;;;;;;;;;5102908;28;20497;-73
2021/12/26 13:29:22;;;;;;;10.65;4.78;;;;;;;;;;5109349;28;20040;-76
2021/12/26 13:31:49;;;;;;;5.28;3.10;;;;;;;;;;5108501;28;20085;-74
2021/12/26 13:34:15;;;;;;;3.70;2.80;;;;;;;;;;5102527;28;20089;-75
2021/12/26 13:36:41;;;;;;;6.70;2.33;;;;;;;;;;5101559;28;20028;-74
2021/12/26 13:39:15;;;;;;;8.25;3.83;;;;;;;;;;5106150;28;20477;-75
2021/12/26 13:41:44;;;;;;;4.13;2.80;;;;;;;;;;5106782;28;20031;-75
2021/12/26 13:44:10;;;;;;;7.07;3.05;;;;;;;;;;5105005;28;20047;-75
2021/12/26 13:46:36;;;;;;;4.95;2.50;;;;;;;;;;5102928;28;20419;-75
2021/12/26 13:49:03;;;;;;;7.95;3.65;;;;;;;;;;5108762;28;20036;-75
2021/12/26 13:51:33;;;;;;;6.13;3.20;;;;;;;;;;5104458;28;20512;-75
2021/12/26 13:54:05;;;;;;;9.30;3.65;;;;;;;;;;5099532;28;20077;-75
2021/12/26 13:56:32;;;;;;;11.02;5.15;;;;;;;;;;5107013;28;20012;-82
2021/12/26 13:58:58;;;;;;;9.20;2.80;;;;;;;;;;5107825;28;20477;-75
2021/12/26 14:01:24;;;;;;;6.13;2.97;;;;;;;;;;5107027;28;20427;-76
2021/12/26 14:03:50;;;;;;;3.83;2.60;;;;;;;;;;5102583;28;20023;-75
2021/12/26 14:06:25;;;;;;;4.80;2.90;;;;;;;;;;5104551;28;20394;-75
2021/12/26 14:08:55;;;;;;;4.45;2.88;;;;;;;;;;5111220;28;20546;-74
2021/12/26 14:11:21;;;;;;;8.00;3.13;;;;;;;;;;5098181;28;20105;-74
2021/12/26 14:13:50;;;;;;;4.28;2.65;;;;;;;;;;5107360;28;20083;-74
2021/12/26 14:16:28;;;;;;;5.28;2.70;;;;;;;;;;5103447;28;20023;-74
2021/12/26 14:18:54;;;;;;;9.77;3.10;;;;;;;;;;5107812;28;20024;-74
2021/12/26 14:21:21;;;;;;;4.80;2.90;;;;;;;;;;5106765;28;20027;-74
2021/12/26 14:23:51;;;;;;;8.88;4.18;;;;;;;;;;5099155;28;20101;-73
2021/12/26 14:26:24;;;;;;;11.93;4.05;;;;;;;;;;5106304;28;20032;-73
2021/12/26 14:28:50;;;;;;;7.25;3.50;;;;;;;;;;5091012;28;20036;-73
2021/12/26 14:31:31;;;;;;;6.07;3.47;;;;;;;;;;5106292;28;20121;-73
2021/12/26 14:33:58;;;;;;;5.82;3.13;;;;;;;;;;5103702;28;20016;-73
2021/12/26 14:36:24;;;;;;;6.00;3.60;;;;;;;;;;5101354;28;20039;-73
2021/12/26 14:38:51;;;;;;;6.60;3.17;;;;;;;;;;5103490;28;20039;-73
2021/12/26 14:41:17;;;;;;;5.30;3.10;;;;;;;;;;5107703;28;20024;-73
2021/12/26 14:43:43;;;;;;;5.80;3.17;;;;;;;;;;5103161;28;20393;-73
2021/12/26 14:46:10;;;;;;;5.95;2.97;;;;;;;;;;5109911;28;20472;-73
2021/12/26 14:48:39;;;;;;;10.10;4.28;;;;;;;;;;5101182;28;20424;-73
2021/12/26 14:51:09;;;;;;;7.90;3.90;;;;;;;;;;5109798;28;20105;-73